sensor_id;sensor_type;location;lat;lon;timestamp;P1;durP1;ratioP1;P2;durP2;ratioP2
29916;SDS011;16786;49.466;11.068;2024-01-15T00:00:29;61.03;;;23.10;;
29916;SDS011;16786;49.466;11.068;2024-01-15T00:02:56;71.03;;;23.23;;
29916;SDS011;16786;49.466;11.068;2024-01-15T00:05:23;67.68;;;23.58;;
29916;SDS011;16786;49.466;11.068;2024-01-15T00:07:50;65.55;;;24.98;;
29916;SDS011;16786;49.466;11.068;2024-01-15T00:10:17;62.28;;;22.17;;
29916;SDS011;16786;49.466;11.068;2024-01-15T00:12:44;64.47;;;22.95;;
29916;SDS011;16786;49.466;11.068;2024-01-15T00:15:11;65.38;;;23.05;;
29916;SDS011;16786;49.466;11.068;2024-01-15T00:17:38;63.78;;;23.95;;
29916;SDS011;16786;49.466;11.068;2024-01-15T00:20:06;60.88;;;22.48;;
29916;SDS011;16786;49.466;11.068;2024-01-15T00:22:33;57.08;;;21.77;;
29916;SDS011;16786;49.466;11.068;2024-01-15T00:25:02;63.75;;;22.00;;
29916;SDS011;16786;49.466;11.068;2024-01-15T00:27:29;70.30;;;23.13;;
29916;SDS011;16786;49.466;11.068;2024-01-15T00:29:56;61.20;;;22.92;;
29916;SDS011;16786;49.466;11.068;2024-01-15T00:32:23;62.05;;;22.92;;
29916;SDS011;16786;49.466;11.068;2024-01-15T00:34:50;69.07;;;22.98;;
29916;SDS011;16786;49.466;11.068;2024-01-15T00:37:17;59.85;;;23.13;;
29916;SDS011;16786;49.466;11.068;2024-01-15T00:39:44;65.20;;;22.38;;
29916;SDS011;16786;49.466;11.068;2024-01-15T00:42:11;64.00;;;23.52;;
29916;SDS011;16786;49.466;11.068;2024-01-15T00:44:38;51.90;;;19.98;;
29916;SDS011;16786;49.466;11.068;2024-01-15T00:47:05;72.68;;;24.35;;
29916;SDS011;16786;49.466;11.068;2024-01-15T00:49:32;58.45;;;21.35;;
29916;SDS011;16786;49.466;11.068;2024-01-15T00:51:59;66.45;;;24.33;;
29916;SDS011;16786;49.466;11.068;2024-01-15T00:54:27;60.92;;;24.58;;
29916;SDS011;16786;49.466;11.068;2024-01-15T00:56:54;61.10;;;24.23;;
29916;SDS011;16786;49.466;11.068;2024-01-15T00:59:21;66.72;;;25.02;;
29916;SDS011;16786;49.466;11.068;2024-01-15T01:01:48;67.22;;;24.52;;
29916;SDS011;16786;49.466;11.068;2024-01-15T01:04:15;63.60;;;26.85;;
29916;SDS011;16786;49.466;11.068;2024-01-15T01:06:42;59.20;;;23.17;;
29916;SDS011;16786;49.466;11.068;2024-01-15T01:09:09;56.63;;;23.20;;
29916;SDS011;16786;49.466;11.068;2024-01-15T01:11:37;55.15;;;21.88;;
29916;SDS011;16786;49.466;11.068;2024-01-15T01:14:04;65.10;;;22.08;;
29916;SDS011;16786;49.466;11.068;2024-01-15T01:16:31;60.67;;;23.08;;
29916;SDS011;16786;49.466;11.068;2024-01-15T01:19:05;63.95;;;23.95;;
29916;SDS011;16786;49.466;11.068;2024-01-15T01:21:33;64.65;;;22.60;;
29916;SDS011;16786;49.466;11.068;2024-01-15T01:24:00;64.35;;;24.27;;
29916;SDS011;16786;49.466;11.068;2024-01-15T01:26:27;61.33;;;23.55;;
29916;SDS011;16786;49.466;11.068;2024-01-15T01:28:54;64.32;;;21.92;;
29916;SDS011;16786;49.466;11.068;2024-01-15T01:31:22;61.20;;;23.23;;
29916;SDS011;16786;49.466;11.068;2024-01-15T01:33:50;64.50;;;24.88;;
29916;SDS011;16786;49.466;11.068;2024-01-15T01:36:17;69.35;;;23.92;;
29916;SDS011;16786;49.466;11.068;2024-01-15T01:38:44;61.58;;;22.75;;
29916;SDS011;16786;49.466;11.068;2024-01-15T01:41:11;63.15;;;24.70;;
29916;SDS011;16786;49.466;11.068;2024-01-15T01:43:38;65.57;;;22.17;;
29916;SDS011;16786;49.466;11.068;2024-01-15T01:46:05;58.13;;;21.77;;
29916;SDS011;16786;49.466;11.068;2024-01-15T01:48:34;61.72;;;22.35;;
29916;SDS011;16786;49.466;11.068;2024-01-15T01:51:02;62.50;;;23.70;;
29916;SDS011;16786;49.466;11.068;2024-01-15T01:53:31;62.25;;;21.60;;
29916;SDS011;16786;49.466;11.068;2024-01-15T01:55:59;68.53;;;23.70;;
29916;SDS011;16786;49.466;11.068;2024-01-15T01:58:27;62.80;;;23.33;;
29916;SDS011;16786;49.466;11.068;2024-01-15T02:00:55;61.90;;;23.33;;
29916;SDS011;16786;49.466;11.068;2024-01-15T02:03:23;62.50;;;23.05;;
29916;SDS011;16786;49.466;11.068;2024-01-15T02:05:50;64.90;;;22.50;;
29916;SDS011;16786;49.466;11.068;2024-01-15T02:08:17;59.95;;;22.65;;
29916;SDS011;16786;49.466;11.068;2024-01-15T02:10:44;59.83;;;20.63;;
29916;SDS011;16786;49.466;11.068;2024-01-15T02:13:11;62.42;;;22.77;;
29916;SDS011;16786;49.466;11.068;2024-01-15T02:15:38;55.00;;;20.08;;
29916;SDS011;16786;49.466;11.068;2024-01-15T02:18:06;56.60;;;20.25;;
29916;SDS011;16786;49.466;11.068;2024-01-15T02:20:36;59.38;;;21.60;;
29916;SDS011;16786;49.466;11.068;2024-01-15T02:25:41;58.65;;;21.00;;
29916;SDS011;16786;49.466;11.068;2024-01-15T02:28:11;54.67;;;19.23;;
29916;SDS011;16786;49.466;11.068;2024-01-15T02:30:43;59.05;;;19.60;;
29916;SDS011;16786;49.466;11.068;2024-01-15T02:33:11;52.90;;;19.27;;
29916;SDS011;16786;49.466;11.068;2024-01-15T02:35:39;49.90;;;19.25;;
29916;SDS011;16786;49.466;11.068;2024-01-15T02:38:07;50.75;;;18.33;;
29916;SDS011;16786;49.466;11.068;2024-01-15T02:40:34;50.55;;;18.83;;
29916;SDS011;16786;49.466;11.068;2024-01-15T02:43:02;47.70;;;18.75;;
29916;SDS011;16786;49.466;11.068;2024-01-15T02:45:29;52.90;;;19.65;;
29916;SDS011;16786;49.466;11.068;2024-01-15T02:47:56;44.63;;;17.75;;
29916;SDS011;16786;49.466;11.068;2024-01-15T02:50:23;45.88;;;18.42;;
29916;SDS011;16786;49.466;11.068;2024-01-15T02:52:50;59.45;;;19.95;;
29916;SDS011;16786;49.466;11.068;2024-01-15T02:55:17;47.78;;;19.40;;
29916;SDS011;16786;49.466;11.068;2024-01-15T02:57:44;45.28;;;17.42;;
29916;SDS011;16786;49.466;11.068;2024-01-15T03:00:11;44.15;;;17.33;;
29916;SDS011;16786;49.466;11.068;2024-01-15T03:02:39;47.30;;;18.45;;
29916;SDS011;16786;49.466;11.068;2024-01-15T03:05:11;50.78;;;18.35;;
29916;SDS011;16786;49.466;11.068;2024-01-15T03:07:38;47.40;;;17.88;;
29916;SDS011;16786;49.466;11.068;2024-01-15T03:10:05;56.78;;;19.25;;
29916;SDS011;16786;49.466;11.068;2024-01-15T03:12:33;45.65;;;17.25;;
29916;SDS011;16786;49.466;11.068;2024-01-15T03:15:00;49.47;;;16.63;;
29916;SDS011;16786;49.466;11.068;2024-01-15T03:17:27;47.80;;;17.48;;
29916;SDS011;16786;49.466;11.068;2024-01-15T03:19:54;47.92;;;16.73;;
29916;SDS011;16786;49.466;11.068;2024-01-15T03:22:21;42.13;;;17.67;;
29916;SDS011;16786;49.466;11.068;2024-01-15T03:24:48;47.17;;;16.55;;
29916;SDS011;16786;49.466;11.068;2024-01-15T03:27:16;44.83;;;16.48;;
29916;SDS011;16786;49.466;11.068;2024-01-15T03:29:43;45.90;;;16.75;;
29916;SDS011;16786;49.466;11.068;2024-01-15T03:32:10;44.80;;;17.08;;
29916;SDS011;16786;49.466;11.068;2024-01-15T03:34:37;42.00;;;15.15;;
29916;SDS011;16786;49.466;11.068;2024-01-15T03:37:04;40.67;;;15.57;;
29916;SDS011;16786;49.466;11.068;2024-01-15T03:39:32;41.20;;;15.48;;
29916;SDS011;16786;49.466;11.068;2024-01-15T03:41:59;45.85;;;16.23;;
29916;SDS011;16786;49.466;11.068;2024-01-15T03:44:26;46.83;;;17.02;;
29916;SDS011;16786;49.466;11.068;2024-01-15T03:46:52;53.75;;;18.08;;
29916;SDS011;16786;49.466;11.068;2024-01-15T03:49:20;47.13;;;16.17;;
29916;SDS011;16786;49.466;11.068;2024-01-15T03:51:47;42.95;;;15.95;;
29916;SDS011;16786;49.466;11.068;2024-01-15T03:54:14;41.03;;;16.85;;
29916;SDS011;16786;49.466;11.068;2024-01-15T03:56:45;46.70;;;17.95;;
29916;SDS011;16786;49.466;11.068;2024-01-15T03:59:12;41.10;;;16.13;;
29916;SDS011;16786;49.466;11.068;2024-01-15T04:01:38;37.35;;;15.10;;
29916;SDS011;16786;49.466;11.068;2024-01-15T04:04:05;45.75;;;15.98;;
29916;SDS011;16786;49.466;11.068;2024-01-15T04:06:32;39.45;;;15.35;;
29916;SDS011;16786;49.466;11.068;2024-01-15T04:09:00;42.97;;;17.77;;
29916;SDS011;16786;49.466;11.068;2024-01-15T04:11:27;37.83;;;13.98;;
29916;SDS011;16786;49.466;11.068;2024-01-15T04:13:54;38.17;;;15.80;;
29916;SDS011;16786;49.466;11.068;2024-01-15T04:16:20;39.95;;;15.88;;
29916;SDS011;16786;49.466;11.068;2024-01-15T04:18:47;40.35;;;14.55;;
29916;SDS011;16786;49.466;11.068;2024-01-15T04:21:16;40.00;;;15.77;;
29916;SDS011;16786;49.466;11.068;2024-01-15T04:23:44;35.70;;;15.27;;
29916;SDS011;16786;49.466;11.068;2024-01-15T04:26:11;40.17;;;14.48;;
29916;SDS011;16786;49.466;11.068;2024-01-15T04:28:38;35.45;;;14.45;;
29916;SDS011;16786;49.466;11.068;2024-01-15T04:31:05;45.75;;;15.57;;
29916;SDS011;16786;49.466;11.068;2024-01-15T04:33:32;40.63;;;15.38;;
29916;SDS011;16786;49.466;11.068;2024-01-15T04:36:03;36.10;;;14.55;;
29916;SDS011;16786;49.466;11.068;2024-01-15T04:38:32;33.08;;;14.30;;
29916;SDS011;16786;49.466;11.068;2024-01-15T04:40:59;32.30;;;14.25;;
29916;SDS011;16786;49.466;11.068;2024-01-15T04:43:26;35.42;;;15.45;;
29916;SDS011;16786;49.466;11.068;2024-01-15T04:45:53;44.38;;;16.30;;
29916;SDS011;16786;49.466;11.068;2024-01-15T04:48:20;34.05;;;14.63;;
29916;SDS011;16786;49.466;11.068;2024-01-15T04:50:49;35.88;;;15.07;;
29916;SDS011;16786;49.466;11.068;2024-01-15T04:53:17;42.38;;;15.90;;
29916;SDS011;16786;49.466;11.068;2024-01-15T04:55:43;40.53;;;15.75;;
29916;SDS011;16786;49.466;11.068;2024-01-15T04:58:10;38.22;;;14.80;;
29916;SDS011;16786;49.466;11.068;2024-01-15T05:00:37;37.95;;;15.38;;
29916;SDS011;16786;49.466;11.068;2024-01-15T05:03:04;33.50;;;15.13;;
29916;SDS011;16786;49.466;11.068;2024-01-15T05:05:31;43.55;;;17.30;;
29916;SDS011;16786;49.466;11.068;2024-01-15T05:07:58;39.03;;;16.63;;
29916;SDS011;16786;49.466;11.068;2024-01-15T05:10:25;40.28;;;15.73;;
29916;SDS011;16786;49.466;11.068;2024-01-15T05:12:53;40.22;;;15.70;;
29916;SDS011;16786;49.466;11.068;2024-01-15T05:15:20;46.97;;;15.85;;
29916;SDS011;16786;49.466;11.068;2024-01-15T05:17:47;33.20;;;15.52;;
29916;SDS011;16786;49.466;11.068;2024-01-15T05:20:13;41.60;;;14.85;;
29916;SDS011;16786;49.466;11.068;2024-01-15T05:22:41;36.30;;;15.25;;
29916;SDS011;16786;49.466;11.068;2024-01-15T05:25:08;40.40;;;16.05;;
29916;SDS011;16786;49.466;11.068;2024-01-15T05:27:35;36.38;;;15.20;;
29916;SDS011;16786;49.466;11.068;2024-01-15T05:30:02;41.53;;;15.55;;
29916;SDS011;16786;49.466;11.068;2024-01-15T05:32:30;38.50;;;15.60;;
29916;SDS011;16786;49.466;11.068;2024-01-15T05:34:57;39.92;;;16.02;;
29916;SDS011;16786;49.466;11.068;2024-01-15T05:37:24;43.33;;;16.13;;
29916;SDS011;16786;49.466;11.068;2024-01-15T05:39:51;38.47;;;14.88;;
29916;SDS011;16786;49.466;11.068;2024-01-15T05:42:18;36.45;;;14.95;;
29916;SDS011;16786;49.466;11.068;2024-01-15T05:44:45;37.63;;;14.95;;
29916;SDS011;16786;49.466;11.068;2024-01-15T05:47:12;35.08;;;14.57;;
29916;SDS011;16786;49.466;11.068;2024-01-15T05:49:40;37.85;;;15.27;;
29916;SDS011;16786;49.466;11.068;2024-01-15T05:52:07;38.33;;;14.68;;
29916;SDS011;16786;49.466;11.068;2024-01-15T05:54:34;38.83;;;15.77;;
29916;SDS011;16786;49.466;11.068;2024-01-15T05:57:02;39.08;;;15.25;;
29916;SDS011;16786;49.466;11.068;2024-01-15T05:59:29;38.72;;;15.75;;
29916;SDS011;16786;49.466;11.068;2024-01-15T06:01:58;37.05;;;14.73;;
29916;SDS011;16786;49.466;11.068;2024-01-15T06:04:26;36.00;;;14.52;;
29916;SDS011;16786;49.466;11.068;2024-01-15T06:06:53;28.65;;;13.13;;
29916;SDS011;16786;49.466;11.068;2024-01-15T06:09:20;30.00;;;13.63;;
29916;SDS011;16786;49.466;11.068;2024-01-15T06:11:47;33.35;;;13.77;;
29916;SDS011;16786;49.466;11.068;2024-01-15T06:14:14;35.33;;;15.13;;
29916;SDS011;16786;49.466;11.068;2024-01-15T06:16:41;33.78;;;13.82;;
29916;SDS011;16786;49.466;11.068;2024-01-15T06:19:08;35.95;;;15.10;;
29916;SDS011;16786;49.466;11.068;2024-01-15T06:21:36;33.53;;;13.18;;
29916;SDS011;16786;49.466;11.068;2024-01-15T06:24:03;35.13;;;15.27;;
29916;SDS011;16786;49.466;11.068;2024-01-15T06:26:30;36.05;;;15.18;;
29916;SDS011;16786;49.466;11.068;2024-01-15T06:28:57;37.22;;;13.80;;
29916;SDS011;16786;49.466;11.068;2024-01-15T06:31:24;34.70;;;13.60;;
29916;SDS011;16786;49.466;11.068;2024-01-15T06:33:51;35.92;;;14.50;;
29916;SDS011;16786;49.466;11.068;2024-01-15T06:36:18;33.15;;;14.40;;
29916;SDS011;16786;49.466;11.068;2024-01-15T06:38:45;40.63;;;14.57;;
29916;SDS011;16786;49.466;11.068;2024-01-15T06:41:12;35.60;;;14.50;;
29916;SDS011;16786;49.466;11.068;2024-01-15T06:43:39;35.83;;;14.57;;
29916;SDS011;16786;49.466;11.068;2024-01-15T06:46:06;38.03;;;15.32;;
29916;SDS011;16786;49.466;11.068;2024-01-15T06:48:34;40.42;;;15.88;;
29916;SDS011;16786;49.466;11.068;2024-01-15T06:51:01;42.35;;;15.93;;
29916;SDS011;16786;49.466;11.068;2024-01-15T06:53:28;38.83;;;15.48;;
29916;SDS011;16786;49.466;11.068;2024-01-15T06:55:55;36.60;;;16.20;;
29916;SDS011;16786;49.466;11.068;2024-01-15T06:58:22;42.95;;;16.48;;
29916;SDS011;16786;49.466;11.068;2024-01-15T07:00:50;32.55;;;15.10;;
29916;SDS011;16786;49.466;11.068;2024-01-15T07:03:17;30.02;;;13.43;;
29916;SDS011;16786;49.466;11.068;2024-01-15T07:05:44;35.85;;;14.95;;
29916;SDS011;16786;49.466;11.068;2024-01-15T07:08:12;39.47;;;16.30;;
29916;SDS011;16786;49.466;11.068;2024-01-15T07:10:39;34.58;;;14.32;;
29916;SDS011;16786;49.466;11.068;2024-01-15T07:13:06;39.10;;;14.48;;
29916;SDS011;16786;49.466;11.068;2024-01-15T07:15:33;34.65;;;14.02;;
29916;SDS011;16786;49.466;11.068;2024-01-15T07:18:00;31.55;;;14.57;;
29916;SDS011;16786;49.466;11.068;2024-01-15T07:20:27;32.13;;;14.13;;
29916;SDS011;16786;49.466;11.068;2024-01-15T07:22:54;33.35;;;13.77;;
29916;SDS011;16786;49.466;11.068;2024-01-15T07:25:21;36.72;;;14.55;;
29916;SDS011;16786;49.466;11.068;2024-01-15T07:27:48;34.10;;;15.23;;
29916;SDS011;16786;49.466;11.068;2024-01-15T07:30:15;33.10;;;14.88;;
29916;SDS011;16786;49.466;11.068;2024-01-15T07:32:42;35.67;;;15.50;;
29916;SDS011;16786;49.466;11.068;2024-01-15T07:35:09;36.88;;;14.20;;
29916;SDS011;16786;49.466;11.068;2024-01-15T07:37:37;36.60;;;15.13;;
29916;SDS011;16786;49.466;11.068;2024-01-15T07:40:04;32.63;;;13.15;;
29916;SDS011;16786;49.466;11.068;2024-01-15T07:42:34;30.25;;;12.60;;
29916;SDS011;16786;49.466;11.068;2024-01-15T07:45:01;35.13;;;13.98;;
29916;SDS011;16786;49.466;11.068;2024-01-15T07:47:29;32.13;;;13.93;;
29916;SDS011;16786;49.466;11.068;2024-01-15T07:49:56;29.92;;;13.38;;
29916;SDS011;16786;49.466;11.068;2024-01-15T07:52:28;39.40;;;15.57;;
29916;SDS011;16786;49.466;11.068;2024-01-15T07:54:57;32.25;;;13.85;;
29916;SDS011;16786;49.466;11.068;2024-01-15T07:57:26;29.17;;;12.80;;
29916;SDS011;16786;49.466;11.068;2024-01-15T07:59:53;36.75;;;15.43;;
29916;SDS011;16786;49.466;11.068;2024-01-15T08:02:20;32.60;;;13.10;;
29916;SDS011;16786;49.466;11.068;2024-01-15T08:04:48;35.53;;;14.40;;
29916;SDS011;16786;49.466;11.068;2024-01-15T08:07:15;30.90;;;14.05;;
29916;SDS011;16786;49.466;11.068;2024-01-15T08:09:42;34.25;;;15.93;;
29916;SDS011;16786;49.466;11.068;2024-01-15T08:12:09;32.78;;;14.88;;
29916;SDS011;16786;49.466;11.068;2024-01-15T08:14:38;27.38;;;13.80;;
29916;SDS011;16786;49.466;11.068;2024-01-15T08:17:04;32.97;;;14.15;;
29916;SDS011;16786;49.466;11.068;2024-01-15T08:19:31;35.60;;;15.30;;
29916;SDS011;16786;49.466;11.068;2024-01-15T08:21:59;31.70;;;14.13;;
29916;SDS011;16786;49.466;11.068;2024-01-15T08:24:26;31.92;;;13.27;;
29916;SDS011;16786;49.466;11.068;2024-01-15T08:26:55;27.83;;;13.02;;
29916;SDS011;16786;49.466;11.068;2024-01-15T08:29:22;29.50;;;12.55;;
29916;SDS011;16786;49.466;11.068;2024-01-15T08:31:51;28.38;;;13.10;;
29916;SDS011;16786;49.466;11.068;2024-01-15T08:34:18;26.88;;;12.65;;
29916;SDS011;16786;49.466;11.068;2024-01-15T08:36:46;28.58;;;12.85;;
29916;SDS011;16786;49.466;11.068;2024-01-15T08:39:13;27.48;;;12.55;;
29916;SDS011;16786;49.466;11.068;2024-01-15T08:41:40;28.98;;;13.45;;
29916;SDS011;16786;49.466;11.068;2024-01-15T08:44:07;32.20;;;12.90;;
29916;SDS011;16786;49.466;11.068;2024-01-15T08:46:34;25.83;;;12.30;;
29916;SDS011;16786;49.466;11.068;2024-01-15T08:49:01;29.08;;;12.18;;
29916;SDS011;16786;49.466;11.068;2024-01-15T08:51:29;30.27;;;13.55;;
29916;SDS011;16786;49.466;11.068;2024-01-15T08:53:56;27.05;;;11.68;;
29916;SDS011;16786;49.466;11.068;2024-01-15T08:56:24;29.30;;;13.15;;
29916;SDS011;16786;49.466;11.068;2024-01-15T08:58:52;26.40;;;12.63;;
29916;SDS011;16786;49.466;11.068;2024-01-15T09:01:19;27.65;;;11.93;;
29916;SDS011;16786;49.466;11.068;2024-01-15T09:03:46;26.30;;;11.73;;
29916;SDS011;16786;49.466;11.068;2024-01-15T09:06:15;27.58;;;12.15;;
29916;SDS011;16786;49.466;11.068;2024-01-15T09:08:41;24.95;;;11.80;;
29916;SDS011;16786;49.466;11.068;2024-01-15T09:11:08;25.80;;;12.02;;
29916;SDS011;16786;49.466;11.068;2024-01-15T09:13:35;27.35;;;12.65;;
29916;SDS011;16786;49.466;11.068;2024-01-15T09:16:02;26.42;;;11.77;;
29916;SDS011;16786;49.466;11.068;2024-01-15T09:18:30;26.30;;;12.73;;
29916;SDS011;16786;49.466;11.068;2024-01-15T09:20:58;25.90;;;12.25;;
29916;SDS011;16786;49.466;11.068;2024-01-15T09:23:26;24.20;;;10.98;;
29916;SDS011;16786;49.466;11.068;2024-01-15T09:25:55;24.27;;;12.15;;
29916;SDS011;16786;49.466;11.068;2024-01-15T09:28:22;27.90;;;12.73;;
29916;SDS011;16786;49.466;11.068;2024-01-15T09:30:49;24.13;;;11.75;;
29916;SDS011;16786;49.466;11.068;2024-01-15T09:33:16;28.60;;;13.38;;
29916;SDS011;16786;49.466;11.068;2024-01-15T09:35:43;23.45;;;11.50;;
29916;SDS011;16786;49.466;11.068;2024-01-15T09:38:10;27.48;;;12.05;;
29916;SDS011;16786;49.466;11.068;2024-01-15T09:40:38;26.75;;;12.18;;
29916;SDS011;16786;49.466;11.068;2024-01-15T09:43:07;26.50;;;11.52;;
29916;SDS011;16786;49.466;11.068;2024-01-15T09:45:34;23.63;;;11.90;;
29916;SDS011;16786;49.466;11.068;2024-01-15T09:48:02;25.95;;;12.18;;
29916;SDS011;16786;49.466;11.068;2024-01-15T09:50:29;24.02;;;11.63;;
29916;SDS011;16786;49.466;11.068;2024-01-15T09:52:56;22.58;;;10.98;;
29916;SDS011;16786;49.466;11.068;2024-01-15T09:55:24;22.65;;;11.07;;
29916;SDS011;16786;49.466;11.068;2024-01-15T09:57:52;26.30;;;11.77;;
29916;SDS011;16786;49.466;11.068;2024-01-15T10:00:21;22.40;;;10.93;;
29916;SDS011;16786;49.466;11.068;2024-01-15T10:02:49;24.73;;;11.38;;
29916;SDS011;16786;49.466;11.068;2024-01-15T10:05:16;23.65;;;10.55;;
29916;SDS011;16786;49.466;11.068;2024-01-15T10:07:43;25.80;;;12.00;;
29916;SDS011;16786;49.466;11.068;2024-01-15T10:10:14;23.90;;;11.95;;
29916;SDS011;16786;49.466;11.068;2024-01-15T10:12:41;25.65;;;12.30;;
29916;SDS011;16786;49.466;11.068;2024-01-15T10:15:09;25.27;;;11.80;;
29916;SDS011;16786;49.466;11.068;2024-01-15T10:17:38;25.90;;;11.52;;
29916;SDS011;16786;49.466;11.068;2024-01-15T10:20:07;23.27;;;11.30;;
29916;SDS011;16786;49.466;11.068;2024-01-15T10:22:39;23.33;;;11.80;;
29916;SDS011;16786;49.466;11.068;2024-01-15T10:25:11;22.92;;;11.93;;
29916;SDS011;16786;49.466;11.068;2024-01-15T10:27:41;26.38;;;11.23;;
29916;SDS011;16786;49.466;11.068;2024-01-15T10:30:10;23.20;;;12.45;;
29916;SDS011;16786;49.466;11.068;2024-01-15T10:32:37;24.88;;;11.75;;
29916;SDS011;16786;49.466;11.068;2024-01-15T10:35:06;22.25;;;11.77;;
29916;SDS011;16786;49.466;11.068;2024-01-15T10:37:34;22.45;;;11.70;;
29916;SDS011;16786;49.466;11.068;2024-01-15T10:40:02;24.98;;;11.93;;
29916;SDS011;16786;49.466;11.068;2024-01-15T10:42:31;26.73;;;11.93;;
29916;SDS011;16786;49.466;11.068;2024-01-15T10:44:58;23.50;;;11.15;;
29916;SDS011;16786;49.466;11.068;2024-01-15T10:47:26;23.45;;;10.57;;
29916;SDS011;16786;49.466;11.068;2024-01-15T10:49:53;22.52;;;10.93;;
29916;SDS011;16786;49.466;11.068;2024-01-15T10:52:21;20.30;;;11.00;;
29916;SDS011;16786;49.466;11.068;2024-01-15T10:54:49;21.85;;;10.15;;
29916;SDS011;16786;49.466;11.068;2024-01-15T10:57:16;21.83;;;11.23;;
29916;SDS011;16786;49.466;11.068;2024-01-15T10:59:44;19.30;;;10.07;;
29916;SDS011;16786;49.466;11.068;2024-01-15T11:02:12;23.98;;;11.05;;
29916;SDS011;16786;49.466;11.068;2024-01-15T11:04:40;23.67;;;10.60;;
29916;SDS011;16786;49.466;11.068;2024-01-15T11:07:07;20.10;;;10.98;;
29916;SDS011;16786;49.466;11.068;2024-01-15T11:09:35;20.52;;;11.10;;
29916;SDS011;16786;49.466;11.068;2024-01-15T11:12:07;22.50;;;11.05;;
29916;SDS011;16786;49.466;11.068;2024-01-15T11:14:42;23.02;;;11.60;;
29916;SDS011;16786;49.466;11.068;2024-01-15T11:17:16;19.85;;;10.45;;
29916;SDS011;16786;49.466;11.068;2024-01-15T11:19:45;22.15;;;10.65;;
29916;SDS011;16786;49.466;11.068;2024-01-15T11:25:01;25.95;;;10.07;;
29916;SDS011;16786;49.466;11.068;2024-01-15T11:27:39;21.40;;;10.25;;
29916;SDS011;16786;49.466;11.068;2024-01-15T11:30:11;20.20;;;10.98;;
29916;SDS011;16786;49.466;11.068;2024-01-15T11:32:39;19.70;;;9.85;;
29916;SDS011;16786;49.466;11.068;2024-01-15T11:35:10;19.93;;;10.37;;
29916;SDS011;16786;49.466;11.068;2024-01-15T11:40:18;22.05;;;10.80;;
29916;SDS011;16786;49.466;11.068;2024-01-15T11:42:46;22.65;;;12.48;;
29916;SDS011;16786;49.466;11.068;2024-01-15T11:45:20;20.60;;;10.45;;
29916;SDS011;16786;49.466;11.068;2024-01-15T11:51:00;19.83;;;10.63;;
29916;SDS011;16786;49.466;11.068;2024-01-15T11:53:43;21.45;;;11.80;;
29916;SDS011;16786;49.466;11.068;2024-01-15T11:56:16;18.98;;;10.10;;
29916;SDS011;16786;49.466;11.068;2024-01-15T11:58:46;24.95;;;11.77;;
29916;SDS011;16786;49.466;11.068;2024-01-15T12:01:13;20.67;;;10.68;;
29916;SDS011;16786;49.466;11.068;2024-01-15T12:03:40;19.33;;;10.35;;
29916;SDS011;16786;49.466;11.068;2024-01-15T12:06:08;20.80;;;10.50;;
29916;SDS011;16786;49.466;11.068;2024-01-15T12:08:36;19.40;;;9.55;;
29916;SDS011;16786;49.466;11.068;2024-01-15T12:11:06;19.70;;;10.13;;
29916;SDS011;16786;49.466;11.068;2024-01-15T12:13:36;23.85;;;10.63;;
29916;SDS011;16786;49.466;11.068;2024-01-15T12:16:03;21.67;;;11.35;;
29916;SDS011;16786;49.466;11.068;2024-01-15T12:18:30;22.77;;;10.40;;
29916;SDS011;16786;49.466;11.068;2024-01-15T12:20:58;21.08;;;11.13;;
29916;SDS011;16786;49.466;11.068;2024-01-15T12:23:25;20.50;;;9.80;;
29916;SDS011;16786;49.466;11.068;2024-01-15T12:25:53;16.83;;;9.68;;
29916;SDS011;16786;49.466;11.068;2024-01-15T12:28:20;22.77;;;10.52;;
29916;SDS011;16786;49.466;11.068;2024-01-15T12:30:49;20.55;;;11.00;;
29916;SDS011;16786;49.466;11.068;2024-01-15T12:33:17;20.67;;;10.27;;
29916;SDS011;16786;49.466;11.068;2024-01-15T12:35:46;20.27;;;9.52;;
29916;SDS011;16786;49.466;11.068;2024-01-15T12:38:13;16.00;;;9.07;;
29916;SDS011;16786;49.466;11.068;2024-01-15T12:40:40;20.05;;;10.27;;
29916;SDS011;16786;49.466;11.068;2024-01-15T12:43:12;18.65;;;9.82;;
29916;SDS011;16786;49.466;11.068;2024-01-15T12:45:40;22.48;;;10.18;;
29916;SDS011;16786;49.466;11.068;2024-01-15T12:48:07;18.17;;;9.75;;
29916;SDS011;16786;49.466;11.068;2024-01-15T12:50:34;22.38;;;10.35;;
29916;SDS011;16786;49.466;11.068;2024-01-15T12:53:02;18.13;;;9.60;;
29916;SDS011;16786;49.466;11.068;2024-01-15T12:55:29;18.10;;;9.18;;
29916;SDS011;16786;49.466;11.068;2024-01-15T12:57:56;17.42;;;9.88;;
29916;SDS011;16786;49.466;11.068;2024-01-15T13:00:23;18.63;;;9.48;;
29916;SDS011;16786;49.466;11.068;2024-01-15T13:02:52;16.33;;;8.95;;
29916;SDS011;16786;49.466;11.068;2024-01-15T13:05:19;18.05;;;9.85;;
29916;SDS011;16786;49.466;11.068;2024-01-15T13:07:47;18.80;;;9.15;;
29916;SDS011;16786;49.466;11.068;2024-01-15T13:10:14;21.70;;;10.23;;
29916;SDS011;16786;49.466;11.068;2024-01-15T13:12:41;20.80;;;9.70;;
29916;SDS011;16786;49.466;11.068;2024-01-15T13:15:09;21.17;;;9.95;;
29916;SDS011;16786;49.466;11.068;2024-01-15T13:17:41;18.55;;;9.30;;
29916;SDS011;16786;49.466;11.068;2024-01-15T13:20:10;23.05;;;9.82;;
29916;SDS011;16786;49.466;11.068;2024-01-15T13:22:38;18.67;;;9.77;;
29916;SDS011;16786;49.466;11.068;2024-01-15T13:25:07;18.30;;;9.35;;
29916;SDS011;16786;49.466;11.068;2024-01-15T13:27:35;18.52;;;8.98;;
29916;SDS011;16786;49.466;11.068;2024-01-15T13:30:04;16.95;;;8.77;;
29916;SDS011;16786;49.466;11.068;2024-01-15T13:32:33;17.20;;;9.07;;
29916;SDS011;16786;49.466;11.068;2024-01-15T13:35:01;17.65;;;8.80;;
29916;SDS011;16786;49.466;11.068;2024-01-15T13:37:31;15.75;;;8.65;;
29916;SDS011;16786;49.466;11.068;2024-01-15T13:39:58;17.52;;;8.90;;
29916;SDS011;16786;49.466;11.068;2024-01-15T13:42:25;17.70;;;9.15;;
29916;SDS011;16786;49.466;11.068;2024-01-15T13:44:54;17.92;;;8.75;;
29916;SDS011;16786;49.466;11.068;2024-01-15T13:47:21;19.02;;;9.52;;
29916;SDS011;16786;49.466;11.068;2024-01-15T13:49:48;15.63;;;8.38;;
29916;SDS011;16786;49.466;11.068;2024-01-15T13:52:16;14.68;;;7.40;;
29916;SDS011;16786;49.466;11.068;2024-01-15T13:54:44;14.02;;;7.80;;
29916;SDS011;16786;49.466;11.068;2024-01-15T13:57:16;16.02;;;8.27;;
29916;SDS011;16786;49.466;11.068;2024-01-15T13:59:45;17.23;;;8.27;;
29916;SDS011;16786;49.466;11.068;2024-01-15T14:02:12;16.25;;;8.45;;
29916;SDS011;16786;49.466;11.068;2024-01-15T14:04:46;17.80;;;9.32;;
29916;SDS011;16786;49.466;11.068;2024-01-15T14:07:14;16.25;;;8.68;;
29916;SDS011;16786;49.466;11.068;2024-01-15T14:09:41;16.33;;;8.73;;
29916;SDS011;16786;49.466;11.068;2024-01-15T14:12:09;17.17;;;8.55;;
29916;SDS011;16786;49.466;11.068;2024-01-15T14:14:36;19.52;;;8.98;;
29916;SDS011;16786;49.466;11.068;2024-01-15T14:17:03;15.60;;;8.23;;
29916;SDS011;16786;49.466;11.068;2024-01-15T14:19:30;18.75;;;9.25;;
29916;SDS011;16786;49.466;11.068;2024-01-15T14:21:57;17.08;;;8.82;;
29916;SDS011;16786;49.466;11.068;2024-01-15T14:24:24;16.92;;;9.15;;